createdAt,value
2023-04-26T00:02:25.261Z,2.40
2023-04-26T00:05:14.437Z,2.60
2023-04-26T00:07:42.622Z,2.50
2023-04-26T00:10:11.339Z,2.90
2023-04-26T00:12:38.988Z,2.93
2023-04-26T00:15:09.613Z,3.03
2023-04-26T00:17:37.555Z,2.97
2023-04-26T00:20:09.514Z,2.87
2023-04-26T00:22:37.149Z,2.70
2023-04-26T00:25:05.997Z,2.60
2023-04-26T00:27:33.565Z,3.07
2023-04-26T00:30:03.892Z,3.03
2023-04-26T00:32:32.131Z,2.90
2023-04-26T00:35:00.037Z,2.90
2023-04-26T00:37:27.904Z,3.20
2023-04-26T00:39:57.360Z,3.20
2023-04-26T00:42:25.344Z,3.27
2023-04-26T00:44:55.600Z,3.20
2023-04-26T00:47:23.543Z,3.23
2023-04-26T00:49:50.558Z,3.17
2023-04-26T00:52:18.161Z,3.40
2023-04-26T00:54:46.166Z,3.40
2023-04-26T00:57:13.583Z,3.40
2023-04-26T00:59:41.555Z,3.37
2023-04-26T01:02:10.571Z,2.97
2023-04-26T01:04:40.184Z,3.33
2023-04-26T01:07:07.350Z,2.93
2023-04-26T01:09:34.892Z,2.93
2023-04-26T01:12:02.843Z,2.90
2023-04-26T01:14:30.360Z,2.50
2023-04-26T01:16:58.865Z,2.47
2023-04-26T01:19:26.394Z,2.70
2023-04-26T01:21:54.201Z,2.57
2023-04-26T01:24:21.786Z,2.93
2023-04-26T01:26:48.888Z,2.63
2023-04-26T01:29:42.433Z,2.40
2023-04-26T01:32:10.477Z,2.63
2023-04-26T01:34:38.783Z,2.60
2023-04-26T01:37:07.843Z,2.60
2023-04-26T01:39:36.635Z,2.80
2023-04-26T01:42:04.870Z,2.70
2023-04-26T01:44:32.433Z,2.80
2023-04-26T01:46:59.869Z,2.77
2023-04-26T01:49:27.378Z,2.37
2023-04-26T01:51:55.810Z,1.70
2023-04-26T01:54:23.810Z,2.03
2023-04-26T01:56:51.996Z,1.73
2023-04-26T01:59:20.242Z,2.00
2023-04-26T02:01:47.832Z,2.10
2023-04-26T02:04:15.836Z,2.60
2023-04-26T02:06:43.358Z,2.40
2023-04-26T02:09:11.443Z,2.40
2023-04-26T02:11:39.353Z,2.50
2023-04-26T02:14:06.826Z,2.20
2023-04-26T02:16:34.376Z,2.40
2023-04-26T02:19:02.657Z,2.40
2023-04-26T02:21:30.687Z,2.53
2023-04-26T02:23:58.722Z,2.40
2023-04-26T02:26:27.068Z,2.20
2023-04-26T02:28:55.274Z,2.17
2023-04-26T02:31:23.323Z,2.57
2023-04-26T02:33:51.003Z,2.73
2023-04-26T02:36:18.462Z,2.80
2023-04-26T02:38:46.616Z,3.23
2023-04-26T02:41:14.553Z,3.50
2023-04-26T02:43:42.381Z,2.80
2023-04-26T02:46:10.201Z,3.33
2023-04-26T02:48:37.782Z,3.20
2023-04-26T02:51:06.698Z,3.10
2023-04-26T02:53:34.211Z,3.00
2023-04-26T02:56:01.948Z,3.17
2023-04-26T02:58:29.953Z,3.03
2023-04-26T03:01:01.449Z,2.53
2023-04-26T03:03:29.786Z,2.90
2023-04-26T03:05:58.182Z,3.17
2023-04-26T03:08:25.762Z,2.77
2023-04-26T03:10:53.836Z,3.13
2023-04-26T03:13:25.470Z,2.70
2023-04-26T03:15:53.646Z,2.90
2023-04-26T03:18:21.464Z,2.77
2023-04-26T03:20:49.044Z,2.90
2023-04-26T03:23:16.597Z,2.93
2023-04-26T03:25:44.051Z,3.30
2023-04-26T03:28:12.207Z,2.73
2023-04-26T03:30:40.086Z,2.83
2023-04-26T03:33:08.021Z,3.10
2023-04-26T03:35:35.904Z,3.40
2023-04-26T03:38:03.457Z,3.20
2023-04-26T03:40:31.335Z,2.77
2023-04-26T03:42:58.850Z,2.93
2023-04-26T03:45:26.998Z,3.17
2023-04-26T03:47:55.075Z,2.70
2023-04-26T03:50:23.163Z,2.70
2023-04-26T03:52:50.963Z,3.00
2023-04-26T03:55:18.462Z,3.23
2023-04-26T03:57:46.494Z,2.73
2023-04-26T04:00:16.300Z,2.80
2023-04-26T04:02:44.101Z,2.80
2023-04-26T04:05:12.041Z,24.00
2023-04-26T04:07:40.110Z,33.40
2023-04-26T04:10:10.741Z,13.80
2023-04-26T04:12:38.495Z,5.67
2023-04-26T04:15:08.389Z,4.60
2023-04-26T04:17:38.239Z,3.87
2023-04-26T04:20:08.726Z,4.57
2023-04-26T04:22:36.429Z,3.47
2023-04-26T04:25:06.147Z,3.50
2023-04-26T04:27:34.179Z,3.20
2023-04-26T04:30:03.703Z,3.63
2023-04-26T04:32:32.952Z,4.30
2023-04-26T04:35:01.053Z,4.57
2023-04-26T04:37:28.876Z,4.63
2023-04-26T04:39:56.549Z,5.07
2023-04-26T04:42:24.446Z,4.60
2023-04-26T04:44:52.418Z,3.97
2023-04-26T04:47:20.850Z,3.93
2023-04-26T04:49:48.740Z,3.93
2023-04-26T04:52:18.708Z,3.33
2023-04-26T04:54:46.736Z,3.60
2023-04-26T04:57:14.056Z,3.53
2023-04-26T04:59:42.003Z,4.30
2023-04-26T05:02:09.962Z,4.00
2023-04-26T05:04:38.270Z,3.67
2023-04-26T05:07:06.761Z,4.20
2023-04-26T05:09:34.765Z,5.00
2023-04-26T05:12:03.388Z,3.90
2023-04-26T05:14:31.411Z,3.97
2023-04-26T05:16:59.362Z,3.90
2023-04-26T05:19:27.338Z,3.20
2023-04-26T05:21:54.896Z,3.37
2023-04-26T05:24:22.769Z,3.77
2023-04-26T05:26:50.338Z,3.37
2023-04-26T05:29:18.090Z,4.50
2023-04-26T05:31:45.650Z,3.30
2023-04-26T05:34:13.667Z,3.60
2023-04-26T05:36:41.855Z,3.13
2023-04-26T05:39:09.771Z,3.43
2023-04-26T05:41:37.831Z,3.03
2023-04-26T05:44:05.422Z,3.90
2023-04-26T05:46:33.392Z,2.73
2023-04-26T05:49:01.306Z,3.10
2023-04-26T05:51:29.242Z,3.13
2023-04-26T05:53:57.394Z,2.80
2023-04-26T05:56:25.930Z,2.93
2023-04-26T05:58:53.693Z,2.87
2023-04-26T06:01:21.277Z,3.07
2023-04-26T06:03:49.530Z,2.47
2023-04-26T06:06:18.566Z,2.40
2023-04-26T06:08:46.013Z,2.40
2023-04-26T06:11:13.930Z,2.80
2023-04-26T06:13:41.844Z,2.20
2023-04-26T06:16:09.672Z,2.10
2023-04-26T06:18:37.297Z,2.10
2023-04-26T06:21:05.481Z,2.20
2023-04-26T06:23:33.244Z,2.47
2023-04-26T06:26:00.951Z,2.20
2023-04-26T06:28:29.209Z,2.23
2023-04-26T06:30:56.675Z,1.10
2023-04-26T06:33:25.013Z,0.97
2023-04-26T06:35:52.470Z,1.30
2023-04-26T06:38:20.349Z,1.30
2023-04-26T06:40:48.589Z,1.40
2023-04-26T06:43:16.405Z,2.00
2023-04-26T06:45:44.391Z,1.53
2023-04-26T06:48:12.201Z,2.07
2023-04-26T06:50:42.856Z,2.00
2023-04-26T06:53:10.286Z,2.23
2023-04-26T06:55:37.407Z,2.63
2023-04-26T06:58:05.325Z,2.40
2023-04-26T07:00:33.177Z,2.80
2023-04-26T07:03:01.570Z,2.60
2023-04-26T07:05:29.777Z,3.00
2023-04-26T07:07:57.400Z,2.67
2023-04-26T07:10:26.141Z,3.70
2023-04-26T07:12:53.975Z,2.93
2023-04-26T07:15:22.258Z,2.10
2023-04-26T07:17:50.064Z,1.83
2023-04-26T07:20:20.997Z,1.40
2023-04-26T07:22:48.980Z,1.47
2023-04-26T07:25:17.193Z,1.23
2023-04-26T07:27:44.675Z,1.57
2023-04-26T07:30:13.164Z,1.23
2023-04-26T07:32:40.836Z,2.30
2023-04-26T07:35:15.964Z,3.87
2023-04-26T07:37:44.550Z,2.07
2023-04-26T07:40:15.057Z,1.83
2023-04-26T07:42:43.121Z,4.40
2023-04-26T07:45:13.620Z,1.97
2023-04-26T07:47:41.181Z,1.83
2023-04-26T07:50:12.973Z,1.57
2023-04-26T07:52:40.807Z,2.13
2023-04-26T07:55:10.256Z,1.90
2023-04-26T07:57:37.888Z,1.60
2023-04-26T08:00:10.351Z,1.70
2023-04-26T08:05:11.639Z,1.57
2023-04-26T08:07:39.963Z,1.77
2023-04-26T08:10:08.260Z,2.00
2023-04-26T08:12:37.902Z,2.00
2023-04-26T08:15:06.710Z,1.90
2023-04-26T08:17:34.779Z,1.50
2023-04-26T08:20:02.653Z,1.80
2023-04-26T08:22:30.763Z,1.73
2023-04-26T08:24:58.254Z,1.47
2023-04-26T08:27:26.106Z,1.80
2023-04-26T08:29:53.632Z,2.10
2023-04-26T08:32:22.118Z,1.73
2023-04-26T08:34:49.829Z,2.00
2023-04-26T08:37:17.578Z,1.50
2023-04-26T08:39:45.475Z,1.90
2023-04-26T08:42:16.089Z,1.80
2023-04-26T08:44:45.110Z,1.80
2023-04-26T08:47:37.127Z,2.20
2023-04-26T08:50:04.797Z,1.90
2023-04-26T08:52:33.304Z,1.90
2023-04-26T08:55:01.580Z,2.43
2023-04-26T08:57:29.417Z,1.87
2023-04-26T08:59:57.817Z,1.93
2023-04-26T09:02:25.267Z,1.80
2023-04-26T09:04:53.273Z,1.83
2023-04-26T09:07:34.112Z,1.33
2023-04-26T09:10:01.806Z,1.80
2023-04-26T09:12:29.829Z,2.03
2023-04-26T09:14:57.806Z,1.63
2023-04-26T09:17:32.059Z,1.87
2023-04-26T09:20:07.219Z,1.47
2023-04-26T09:22:36.233Z,2.83
2023-04-26T09:25:06.005Z,2.03
2023-04-26T09:27:56.650Z,1.83
2023-04-26T09:30:25.764Z,3.33
2023-04-26T09:33:07.297Z,2.10
2023-04-26T09:35:36.657Z,1.90
2023-04-26T09:38:13.260Z,3.50
2023-04-26T09:41:04.948Z,3.00
2023-04-26T09:43:33.342Z,2.83
2023-04-26T09:46:02.276Z,2.77
2023-04-26T09:48:34.703Z,3.67
2023-04-26T09:51:04.678Z,3.47
2023-04-26T09:53:39.685Z,3.17
2023-04-26T09:56:10.670Z,4.33
2023-04-26T09:58:46.891Z,3.00
2023-04-26T10:01:20.528Z,3.17
2023-04-26T10:03:48.363Z,3.47
2023-04-26T10:06:16.936Z,3.40
2023-04-26T10:08:44.158Z,2.57
2023-04-26T10:11:13.121Z,3.10
2023-04-26T10:13:41.696Z,2.30
2023-04-26T10:16:10.083Z,4.70
2023-04-26T10:18:37.965Z,4.53
2023-04-26T10:21:13.426Z,5.20
2023-04-26T10:23:40.992Z,5.63
2023-04-26T10:26:08.527Z,3.87
2023-04-26T10:29:02.871Z,4.50
2023-04-26T10:32:16.667Z,3.40
2023-04-26T10:34:44.869Z,5.83
2023-04-26T10:37:37.754Z,4.13
2023-04-26T10:40:24.811Z,3.17
2023-04-26T10:42:54.324Z,5.97
2023-04-26T10:45:49.537Z,5.30
2023-04-26T10:48:27.022Z,4.43
2023-04-26T10:51:02.657Z,3.50
2023-04-26T10:53:53.911Z,3.27
2023-04-26T10:56:26.904Z,3.20
2023-04-26T11:01:52.286Z,3.63
2023-04-26T11:04:20.027Z,3.43
2023-04-26T11:06:53.266Z,5.00
2023-04-26T11:09:41.307Z,4.23
2023-04-26T11:12:15.468Z,4.70
2023-04-26T11:14:42.925Z,4.17
2023-04-26T11:17:10.076Z,5.03
2023-04-26T11:19:45.451Z,3.50
2023-04-26T11:22:12.862Z,3.73
2023-04-26T11:24:40.791Z,3.33
2023-04-26T11:27:11.831Z,3.00
2023-04-26T11:29:40.019Z,2.77
2023-04-26T11:32:08.858Z,2.60
2023-04-26T11:34:36.542Z,2.27
2023-04-26T11:37:05.111Z,2.57
2023-04-26T11:39:33.062Z,3.03
2023-04-26T11:42:29.920Z,4.03
2023-04-26T11:44:59.604Z,4.32
2023-04-26T11:47:30.901Z,3.93
2023-04-26T11:49:58.472Z,4.27
2023-04-26T11:52:26.475Z,3.60
2023-04-26T11:55:04.146Z,3.63
2023-04-26T11:57:32.418Z,3.28
2023-04-26T12:00:14.840Z,2.42
2023-04-26T12:02:48.824Z,1.42
2023-04-26T12:05:23.594Z,1.67
2023-04-26T12:07:56.733Z,2.35
2023-04-26T12:10:27.103Z,2.63
2023-04-26T12:12:56.864Z,2.90
2023-04-26T12:15:25.069Z,2.80
2023-04-26T12:17:56.674Z,3.00
2023-04-26T12:20:28.546Z,2.47
2023-04-26T12:23:06.354Z,3.13
2023-04-26T12:25:34.557Z,2.35
2023-04-26T12:28:12.561Z,2.35
2023-04-26T12:30:40.431Z,2.38
2023-04-26T12:33:16.487Z,2.22
2023-04-26T12:35:45.960Z,2.58
2023-04-26T12:38:33.679Z,2.33
2023-04-26T12:41:01.870Z,2.53
2023-04-26T12:43:29.542Z,2.78
2023-04-26T12:45:56.832Z,2.80
2023-04-26T12:48:24.332Z,3.20
2023-04-26T12:50:52.179Z,3.45
2023-04-26T12:53:19.796Z,3.63
2023-04-26T12:55:47.349Z,3.08
2023-04-26T12:58:15.071Z,2.70
2023-04-26T13:00:44.482Z,3.00
2023-04-26T13:03:14.895Z,2.55
2023-04-26T13:05:43.105Z,2.00
2023-04-26T13:08:11.194Z,1.90
2023-04-26T13:10:39.363Z,2.30
2023-04-26T13:13:07.329Z,2.60
2023-04-26T13:15:34.946Z,2.25
2023-04-26T13:18:02.691Z,2.53
2023-04-26T13:20:31.146Z,2.97
2023-04-26T13:22:59.031Z,2.58
2023-04-26T13:25:26.914Z,2.45
2023-04-26T13:27:55.923Z,2.47
2023-04-26T13:30:23.898Z,2.60
2023-04-26T13:32:51.542Z,3.10
2023-04-26T13:35:19.769Z,1.50
2023-04-26T13:37:47.996Z,1.67
2023-04-26T13:40:15.941Z,2.47
2023-04-26T13:42:43.695Z,2.50
2023-04-26T13:45:14.219Z,2.00
2023-04-26T13:47:42.151Z,2.90
2023-04-26T13:50:11.771Z,2.45
2023-04-26T13:52:39.308Z,2.38
2023-04-26T13:55:09.567Z,1.90
2023-04-26T13:57:37.171Z,1.77
2023-04-26T14:00:08.192Z,2.20
2023-04-26T14:02:35.965Z,1.85
2023-04-26T14:05:05.222Z,1.90
2023-04-26T14:07:33.343Z,1.63
2023-04-26T14:10:01.418Z,1.70
2023-04-26T14:12:30.232Z,1.70
2023-04-26T14:14:57.867Z,1.30
2023-04-26T14:17:25.837Z,1.17
2023-04-26T14:19:54.792Z,1.40
2023-04-26T14:22:22.872Z,0.88
2023-04-26T14:24:50.776Z,0.90
2023-04-26T14:27:19.309Z,0.95
2023-04-26T14:29:47.186Z,1.23
2023-04-26T14:32:15.321Z,1.30
2023-04-26T14:34:43.076Z,1.52
2023-04-26T14:37:10.836Z,1.40
2023-04-26T14:39:38.367Z,1.45
2023-04-26T14:42:06.847Z,1.50
2023-04-26T14:44:34.751Z,1.33
2023-04-26T14:47:02.701Z,1.10
2023-04-26T14:49:30.267Z,1.10
2023-04-26T14:51:58.217Z,0.80
2023-04-26T14:54:25.814Z,3.25
2023-04-26T14:56:54.042Z,0.90
2023-04-26T14:59:21.554Z,0.90
2023-04-26T15:01:49.624Z,0.88
2023-04-26T15:04:17.268Z,0.85
2023-04-26T15:06:45.155Z,1.00
2023-04-26T15:09:13.283Z,1.10
2023-04-26T15:11:40.907Z,0.82
2023-04-26T15:14:08.903Z,0.70
2023-04-26T15:16:36.970Z,1.38
2023-04-26T15:19:05.999Z,1.35
2023-04-26T15:21:35.736Z,1.20
2023-04-26T15:24:04.162Z,1.50
2023-04-26T15:26:33.327Z,1.23
2023-04-26T15:29:00.993Z,1.08
2023-04-26T15:31:28.956Z,1.50
2023-04-26T15:33:57.262Z,1.10
2023-04-26T15:36:25.099Z,1.02
2023-04-26T15:38:52.856Z,1.35
2023-04-26T15:41:20.445Z,1.92
2023-04-26T15:43:48.399Z,1.77
2023-04-26T15:46:16.804Z,1.25
2023-04-26T15:48:45.147Z,2.10
2023-04-26T15:51:13.169Z,1.00
2023-04-26T15:53:45.134Z,1.08
2023-04-26T15:56:18.224Z,1.30
2023-04-26T15:58:46.122Z,1.40
2023-04-26T16:01:14.869Z,1.25
2023-04-26T16:03:46.506Z,1.65
2023-04-26T16:06:15.405Z,1.38
2023-04-26T16:08:43.642Z,1.38
2023-04-26T16:11:11.839Z,1.80
2023-04-26T16:13:39.779Z,1.25
2023-04-26T16:16:09.231Z,1.77
2023-04-26T16:18:40.175Z,2.15
2023-04-26T16:21:09.888Z,1.50
2023-04-26T16:23:38.003Z,2.60
2023-04-26T16:26:04.757Z,1.90
2023-04-26T16:28:33.074Z,1.63
2023-04-26T16:31:01.137Z,1.58
2023-04-26T16:33:29.019Z,1.73
2023-04-26T16:35:56.978Z,1.60
2023-04-26T16:38:25.034Z,1.67
2023-04-26T16:40:58.724Z,1.50
2023-04-26T16:43:29.751Z,1.20
2023-04-26T16:46:01.736Z,1.30
2023-04-26T16:48:30.707Z,1.17
2023-04-26T16:50:58.620Z,1.45
2023-04-26T16:53:26.527Z,1.30
2023-04-26T16:55:54.072Z,1.10
2023-04-26T16:58:22.024Z,1.23
2023-04-26T17:00:49.486Z,1.70
2023-04-26T17:03:17.462Z,1.50
2023-04-26T17:05:48.835Z,1.50
2023-04-26T17:08:16.736Z,1.70
2023-04-26T17:10:44.792Z,1.73
2023-04-26T17:13:16.524Z,1.53
2023-04-26T17:15:44.988Z,1.83
2023-04-26T17:18:12.883Z,1.80
2023-04-26T17:20:41.194Z,1.93
2023-04-26T17:23:09.077Z,1.70
2023-04-26T17:25:36.917Z,1.70
2023-04-26T17:28:05.374Z,1.87
2023-04-26T17:30:33.243Z,1.70
2023-04-26T17:33:00.916Z,1.70
2023-04-26T17:35:36.503Z,1.50
2023-04-26T17:38:03.505Z,1.50
2023-04-26T17:40:31.075Z,1.10
2023-04-26T17:42:58.661Z,1.20
2023-04-26T17:45:27.416Z,1.20
2023-04-26T17:47:55.308Z,0.90
2023-04-26T17:50:23.940Z,1.30
2023-04-26T17:52:51.339Z,1.30
2023-04-26T17:55:18.928Z,1.30
2023-04-26T17:57:46.777Z,1.40
2023-04-26T18:00:16.543Z,1.20
2023-04-26T18:02:44.817Z,5.53
2023-04-26T18:05:13.806Z,1.80
2023-04-26T18:07:41.310Z,2.10
2023-04-26T18:10:10.225Z,2.07
2023-04-26T18:12:38.306Z,2.33
2023-04-26T18:15:07.033Z,2.37
2023-04-26T18:17:35.101Z,3.27
2023-04-26T18:20:02.836Z,2.87
2023-04-26T18:22:30.908Z,2.13
2023-04-26T18:24:58.819Z,1.40
2023-04-26T18:27:26.756Z,1.40
2023-04-26T18:29:54.935Z,1.47
2023-04-26T18:32:22.441Z,1.67
2023-04-26T18:34:49.971Z,3.17
2023-04-26T18:37:17.603Z,1.10
2023-04-26T18:39:48.781Z,1.20
2023-04-26T18:42:16.604Z,0.97
2023-04-26T18:44:44.625Z,0.90
2023-04-26T18:47:12.432Z,0.80
2023-04-26T18:49:40.492Z,1.00
2023-04-26T18:52:08.898Z,2.40
2023-04-26T18:54:38.992Z,1.10
2023-04-26T18:57:06.853Z,1.33
2023-04-26T18:59:34.490Z,1.57
2023-04-26T19:02:02.458Z,1.10
2023-04-26T19:04:30.827Z,0.90
2023-04-26T19:07:01.420Z,1.10
2023-04-26T19:09:31.988Z,1.10
2023-04-26T19:12:06.036Z,1.40
2023-04-26T19:14:36.128Z,1.50
2023-04-26T19:17:04.158Z,1.43
2023-04-26T19:19:31.973Z,0.90
2023-04-26T19:21:59.897Z,1.20
2023-04-26T19:24:27.827Z,1.10
2023-04-26T19:26:55.665Z,1.13
2023-04-26T19:29:23.178Z,1.00
2023-04-26T19:31:51.182Z,0.90
2023-04-26T19:34:18.861Z,1.00
2023-04-26T19:36:47.183Z,1.10
2023-04-26T19:39:16.613Z,1.20
2023-04-26T19:41:45.239Z,0.90
2023-04-26T19:44:12.957Z,1.20
2023-04-26T19:46:40.956Z,1.60
2023-04-26T19:49:08.863Z,1.40
2023-04-26T19:51:40.652Z,1.57
2023-04-26T19:54:08.603Z,2.13
2023-04-26T19:56:36.504Z,2.13
2023-04-26T19:59:04.600Z,1.73
2023-04-26T20:01:32.386Z,1.50
2023-04-26T20:04:00.175Z,1.80
2023-04-26T20:06:27.708Z,1.70
2023-04-26T20:08:58.568Z,1.63
2023-04-26T20:11:26.446Z,1.70
2023-04-26T20:13:54.301Z,1.53
2023-04-26T20:16:22.251Z,1.50
2023-04-26T20:18:50.287Z,2.00
2023-04-26T20:21:18.664Z,2.20
2023-04-26T20:23:46.391Z,1.80
2023-04-26T20:26:13.456Z,2.53
2023-04-26T20:28:41.104Z,2.33
2023-04-26T20:31:08.753Z,3.43
2023-04-26T20:33:36.740Z,2.40
2023-04-26T20:36:04.847Z,2.30
2023-04-26T20:38:32.986Z,2.33
2023-04-26T20:41:03.234Z,2.13
2023-04-26T20:43:30.807Z,1.90
2023-04-26T20:45:58.852Z,1.90
2023-04-26T20:48:26.173Z,2.27
2023-04-26T20:50:58.738Z,2.60
2023-04-26T20:53:27.040Z,2.53
2023-04-26T20:55:54.629Z,2.03
2023-04-26T20:58:22.081Z,2.73
2023-04-26T21:00:54.149Z,2.40
2023-04-26T21:03:41.217Z,2.50
2023-04-26T21:08:37.001Z,2.33
2023-04-26T21:11:05.424Z,2.20
2023-04-26T21:13:33.002Z,2.30
2023-04-26T21:16:00.482Z,2.23
2023-04-26T21:18:28.537Z,2.53
2023-04-26T21:20:56.791Z,1.97
2023-04-26T21:23:24.516Z,1.93
2023-04-26T21:25:51.956Z,2.63
2023-04-26T21:28:20.065Z,2.23
2023-04-26T21:30:47.560Z,2.73
2023-04-26T21:33:16.121Z,2.13
2023-04-26T21:35:44.204Z,2.10
2023-04-26T21:38:13.070Z,2.03
2023-04-26T21:40:40.664Z,2.00
2023-04-26T21:43:08.626Z,2.10
2023-04-26T21:45:36.244Z,1.93
2023-04-26T21:48:04.589Z,2.00
2023-04-26T21:50:32.441Z,2.10
2023-04-26T21:53:00.107Z,2.10
2023-04-26T21:55:27.995Z,2.20
2023-04-26T21:57:55.769Z,2.30
2023-04-26T22:00:23.988Z,2.40
2023-04-26T22:02:52.467Z,2.20
2023-04-26T22:05:26.216Z,1.83
2023-04-26T22:07:57.289Z,2.20
2023-04-26T22:10:25.323Z,2.40
2023-04-26T22:12:53.025Z,2.03
2023-04-26T22:15:21.080Z,2.10
2023-04-26T22:17:48.685Z,1.90
2023-04-26T22:20:16.507Z,2.10
2023-04-26T22:22:45.032Z,2.20
2023-04-26T22:25:12.911Z,1.77
2023-04-26T22:27:40.589Z,2.30
2023-04-26T22:30:23.883Z,1.97
2023-04-26T22:32:54.767Z,1.90
2023-04-26T22:35:21.989Z,1.87
2023-04-26T22:37:49.637Z,1.80
2023-04-26T22:40:18.089Z,2.00
2023-04-26T22:42:45.937Z,2.30
2023-04-26T22:45:13.650Z,2.00
2023-04-26T22:47:41.968Z,2.07
2023-04-26T22:50:11.377Z,1.97
2023-04-26T22:52:38.491Z,1.83
2023-04-26T22:55:08.967Z,1.80
2023-04-26T22:57:36.726Z,2.20
2023-04-26T23:00:10.240Z,2.10
2023-04-26T23:02:37.938Z,1.90
2023-04-26T23:05:10.226Z,1.87
2023-04-26T23:07:38.623Z,2.20
2023-04-26T23:10:07.180Z,1.77
2023-04-26T23:12:35.983Z,1.83
2023-04-26T23:15:05.295Z,1.80
2023-04-26T23:17:34.196Z,1.77
2023-04-26T23:20:02.323Z,1.93
2023-04-26T23:22:29.304Z,1.83
2023-04-26T23:24:57.190Z,2.13
2023-04-26T23:27:24.941Z,2.00
2023-04-26T23:29:52.925Z,1.70
2023-04-26T23:32:28.108Z,2.40
2023-04-26T23:34:56.146Z,1.90
2023-04-26T23:37:24.020Z,2.03
2023-04-26T23:39:51.823Z,1.90
2023-04-26T23:42:19.285Z,2.13
2023-04-26T23:44:46.850Z,2.03
2023-04-26T23:47:13.992Z,1.83
2023-04-26T23:49:41.914Z,2.03
2023-04-26T23:52:09.810Z,1.83
2023-04-26T23:54:37.686Z,1.50
2023-04-26T23:57:05.614Z,1.60
2023-04-26T23:59:34.025Z,1.53
